Time;durP1;ratioP1;P1;durP2;ratioP2;P2;SDS_P1;SDS_P2;PMS_P1;PMS_P2;Temp;Humidity;BMP_temperature;BMP_pressure;BME280_temperature;BME280_humidity;BME280_pressure;Samples;Min_cycle;Max_cycle;Signal;HPM_P1;HPM_P2
2022/04/10 00:02:19;;;;;;;5.57;2.93;;;;;;;2.78;86.49;100659.78;5030859;28;20593;-80
2022/04/10 00:04:46;;;;;;;6.83;3.80;;;;;;;2.77;86.43;100662.47;5021158;28;20202;-80
2022/04/10 00:07:13;;;;;;;5.63;3.00;;;;;;;2.78;85.70;100665.03;5022469;28;20204;-80
2022/04/10 00:09:39;;;;;;;6.87;3.33;;;;;;;2.77;86.46;100668.56;5030031;28;20214;-80
2022/04/10 00:12:07;;;;;;;7.40;3.77;;;;;;;2.78;85.83;100658.91;5022523;28;20212;-80
2022/04/10 00:14:33;;;;;;;6.70;3.60;;;;;;;2.78;86.00;100664.19;5030589;28;20207;-80
2022/04/10 00:17:00;;;;;;;6.60;3.13;;;;;;;2.77;85.90;100665.94;5028364;28;20221;-80
2022/04/10 00:19:27;;;;;;;5.70;2.87;;;;;;;2.79;85.98;100663.28;5051673;22;20629;-74
2022/04/10 00:21:55;;;;;;;10.40;3.30;;;;;;;2.81;85.70;100673.75;5054869;28;20238;-74
2022/04/10 00:24:25;;;;;;;6.33;2.87;;;;;;;2.80;86.19;100667.63;5047096;28;20554;-73
2022/04/10 00:26:51;;;;;;;5.93;2.80;;;;;;;2.81;86.10;100669.34;5045810;28;20205;-73
2022/04/10 00:29:18;;;;;;;5.93;2.80;;;;;;;2.84;85.75;100668.41;5055295;28;20228;-74
2022/04/10 00:31:44;;;;;;;5.50;2.87;;;;;;;2.83;86.43;100678.06;5047637;28;20577;-74
2022/04/10 00:34:11;;;;;;;9.17;3.13;;;;;;;2.84;85.72;100666.63;5062117;22;20692;-72
2022/04/10 00:36:38;;;;;;;8.03;2.83;;;;;;;2.85;86.14;100676.25;5025835;28;20213;-72
2022/04/10 00:39:06;;;;;;;4.87;3.00;;;;;;;2.86;86.04;100672.72;5022482;28;20202;-73
2022/04/10 00:41:32;;;;;;;7.03;2.90;;;;;;;2.87;86.19;100671.75;5032646;28;20233;-71
2022/04/10 00:44:02;;;;;;;7.07;3.10;;;;;;;2.89;86.18;100674.34;5028424;28;20221;-70
2022/04/10 00:46:29;;;;;;;6.63;2.80;;;;;;;2.87;85.46;100669.13;5007477;28;20207;-73
2022/04/10 00:48:55;;;;;;;8.00;2.50;;;;;;;2.87;85.86;100665.66;5008662;28;20203;-73
2022/04/10 00:54:08;;;;;;;11.17;3.30;;;;;;;2.87;85.26;100673.53;5011309;28;20233;-75
2022/04/10 00:56:36;;;;;;;8.50;3.23;;;;;;;2.87;86.25;100676.16;5010558;28;20199;-73
2022/04/10 00:59:03;;;;;;;8.60;2.90;;;;;;;2.85;85.51;100678.88;5025612;28;20207;-73
2022/04/10 01:01:29;;;;;;;6.43;3.00;;;;;;;2.84;85.95;100677.16;5030874;28;20206;-73
2022/04/10 01:03:56;;;;;;;7.93;2.87;;;;;;;2.83;85.60;100680.69;5016447;28;20739;-73
2022/04/10 01:06:23;;;;;;;4.57;2.43;;;;;;;2.83;85.92;100677.19;5016066;28;20210;-72
2022/04/10 01:08:50;;;;;;;5.93;3.00;;;;;;;2.82;85.38;100678.97;5031054;28;20214;-73
2022/04/10 01:11:18;;;;;;;7.20;2.70;;;;;;;2.81;85.24;100685.13;5031435;28;20588;-72
2022/04/10 01:13:45;;;;;;;4.87;2.57;;;;;;;2.80;85.02;100683.41;5013185;28;20226;-73
2022/04/10 01:16:12;;;;;;;5.70;3.00;;;;;;;2.79;85.43;100689.56;5014587;28;20636;-73
2022/04/10 01:18:40;;;;;;;4.77;2.77;;;;;;;2.78;85.34;100688.72;5010654;28;20202;-73
2022/04/10 01:21:08;;;;;;;7.27;2.50;;;;;;;2.81;85.13;100686.91;5010840;28;20215;-74
2022/04/10 01:23:36;;;;;;;4.73;2.80;;;;;;;2.82;85.59;100696.50;5010395;28;20509;-72
2022/04/10 01:26:03;;;;;;;6.10;2.60;;;;;;;2.84;85.49;100697.34;5010750;28;20213;-72
2022/04/10 01:28:30;;;;;;;10.53;3.27;;;;;;;2.82;85.42;100696.50;5010402;28;20261;-72
2022/04/10 01:30:56;;;;;;;7.70;3.10;;;;;;;2.83;84.94;100688.56;5010662;28;20578;-73
2022/04/10 01:33:23;;;;;;;7.53;3.00;;;;;;;2.83;85.86;100695.59;5016584;28;20203;-73
2022/04/10 01:35:50;;;;;;;10.13;3.47;;;;;;;2.83;85.82;100703.50;5012157;28;20206;-74
2022/04/10 01:38:17;;;;;;;7.73;3.03;;;;;;;2.84;85.29;100700.81;5010138;28;20198;-72
2022/04/10 01:40:47;;;;;;;11.47;2.90;;;;;;;2.86;85.38;100706.03;5010142;28;20214;-73
2022/04/10 01:43:13;;;;;;;9.70;3.87;;;;;;;2.86;85.11;100708.66;5009555;28;20902;-72
2022/04/10 01:45:40;;;;;;;8.27;3.23;;;;;;;2.88;85.86;100717.34;5010664;28;20199;-72
2022/04/10 01:48:06;;;;;;;8.03;3.70;;;;;;;2.89;84.87;100716.44;5009010;28;20220;-74
2022/04/10 01:50:33;;;;;;;6.50;3.17;;;;;;;2.89;85.39;100714.66;5009847;28;20207;-73
2022/04/10 01:52:59;;;;;;;8.03;3.20;;;;;;;2.88;85.23;100712.09;5009509;28;20213;-72
2022/04/10 01:55:26;;;;;;;4.93;3.20;;;;;;;2.88;85.33;100718.22;5010175;28;20285;-72
2022/04/10 01:57:54;;;;;;;7.47;3.47;;;;;;;2.88;85.27;100728.72;5009756;28;20206;-75
2022/04/10 02:00:20;;;;;;;11.87;3.37;;;;;;;2.88;84.94;100725.25;5008173;28;20373;-72
2022/04/10 02:02:47;;;;;;;8.37;3.43;;;;;;;2.87;85.09;100715.63;5003399;28;20234;-74
2022/04/10 02:05:13;;;;;;;6.63;2.80;;;;;;;2.88;85.72;100725.25;5009799;28;20701;-73
2022/04/10 02:07:40;;;;;;;4.80;3.23;;;;;;;2.89;85.60;100708.53;5023777;28;20203;-73
2022/04/10 02:10:07;;;;;;;8.97;3.20;;;;;;;2.87;85.33;100719.13;5010029;28;20727;-72
2022/04/10 02:12:34;;;;;;;5.20;2.77;;;;;;;2.87;85.44;100716.47;5010096;28;20238;-71
2022/04/10 02:15:01;;;;;;;6.87;3.20;;;;;;;2.85;85.00;100714.84;5008960;28;20242;-73
2022/04/10 02:17:28;;;;;;;7.60;4.00;;;;;;;2.84;85.19;100711.34;4990068;28;20226;-73
2022/04/10 02:19:54;;;;;;;12.03;3.67;;;;;;;2.84;85.09;100705.22;4995415;28;20215;-72
2022/04/10 02:22:22;;;;;;;10.50;3.60;;;;;;;2.84;85.53;100705.22;5009773;28;20233;-72
2022/04/10 02:24:49;;;;;;;5.37;2.87;;;;;;;2.85;84.74;100705.19;5010508;28;20336;-73
2022/04/10 02:27:17;;;;;;;10.40;3.57;;;;;;;2.84;85.46;100713.97;5009359;28;20231;-72
2022/04/10 02:29:43;;;;;;;7.97;3.33;;;;;;;2.84;85.41;100711.34;5010210;28;20214;-72
2022/04/10 02:32:11;;;;;;;5.10;2.67;;;;;;;2.85;85.49;100712.22;5009346;28;20207;-72
2022/04/10 02:34:38;;;;;;;9.17;4.07;;;;;;;2.86;85.39;100719.19;5014825;28;20599;-72
2022/04/10 02:37:05;;;;;;;6.87;3.53;;;;;;;2.88;84.64;100717.34;5011040;28;20214;-72
2022/04/10 02:39:31;;;;;;;5.50;2.87;;;;;;;2.88;85.54;100726.09;5009789;28;20562;-74
2022/04/10 02:41:58;;;;;;;6.60;2.83;;;;;;;2.89;84.96;100719.06;5009230;28;20218;-73
2022/04/10 02:44:24;;;;;;;11.63;4.37;;;;;;;2.89;84.97;100725.19;4994529;28;20223;-73
2022/04/10 02:46:51;;;;;;;8.40;3.60;;;;;;;2.89;85.10;100716.44;5009171;28;20234;-72
2022/04/10 02:49:19;;;;;;;9.10;3.53;;;;;;;2.90;85.52;100726.06;5009384;28;20214;-71
2022/04/10 02:51:47;;;;;;;14.20;4.00;;;;;;;2.88;85.00;100727.88;5008768;28;20685;-72
2022/04/10 02:54:14;;;;;;;7.10;3.63;;;;;;;2.89;85.27;100726.97;5008913;28;20277;-73
2022/04/10 02:56:40;;;;;;;6.07;3.27;;;;;;;2.87;85.02;100715.63;5008233;28;20211;-74
2022/04/10 02:59:08;;;;;;;8.47;3.03;;;;;;;2.85;85.06;100717.47;5008407;28;20449;-73
2022/04/10 03:01:34;;;;;;;7.03;3.33;;;;;;;2.84;85.18;100727.13;5009303;28;20636;-72
2022/04/10 03:04:01;;;;;;;8.83;3.73;;;;;;;2.84;84.97;100728.91;5008354;28;20222;-73
2022/04/10 03:06:29;;;;;;;9.30;3.00;;;;;;;2.84;85.21;100721.00;5001561;28;20191;-72
2022/04/10 03:08:55;;;;;;;7.23;3.30;;;;;;;2.85;84.82;100725.34;5008766;28;20211;-73
2022/04/10 03:11:23;;;;;;;6.07;3.80;;;;;;;2.83;85.03;100724.53;5009137;28;20218;-74
2022/04/10 03:13:49;;;;;;;5.83;3.70;;;;;;;2.80;84.98;100730.75;5008553;28;20219;-72
2022/04/10 03:16:16;;;;;;;7.23;3.00;;;;;;;2.77;84.68;100729.06;5009028;28;20222;-72
2022/04/10 03:18:43;;;;;;;8.30;3.43;;;;;;;2.78;85.48;100733.41;5009006;28;20207;-73
2022/04/10 03:21:10;;;;;;;9.90;3.50;;;;;;;2.77;84.71;100739.59;5008565;28;20210;-72
2022/04/10 03:23:37;;;;;;;8.17;3.60;;;;;;;2.78;84.41;100737.81;5006956;28;20227;-72
2022/04/10 03:26:04;;;;;;;9.33;3.60;;;;;;;2.78;85.34;100738.69;5003253;28;20209;-73
2022/04/10 03:28:30;;;;;;;9.20;3.43;;;;;;;2.77;84.92;100741.34;5002326;28;20203;-72
2022/04/10 03:30:58;;;;;;;8.87;3.50;;;;;;;2.76;85.23;100734.38;5008917;28;20214;-72
2022/04/10 03:33:25;;;;;;;7.90;3.50;;;;;;;2.76;85.20;100745.75;5005037;28;20199;-73
2022/04/10 03:35:53;;;;;;;9.00;3.20;;;;;;;2.76;85.19;100748.38;5008823;28;20961;-72
2022/04/10 03:38:20;;;;;;;7.00;3.57;;;;;;;2.76;85.17;100740.50;5000496;28;20210;-72
2022/04/10 03:40:48;;;;;;;11.80;3.63;;;;;;;2.76;84.76;100737.00;5016635;28;20202;-72
2022/04/10 03:43:15;;;;;;;14.07;3.50;;;;;;;2.74;85.44;100744.94;4995978;28;20219;-72
2022/04/10 03:45:42;;;;;;;10.43;3.47;;;;;;;2.73;84.69;100739.72;5009071;28;20206;-71
2022/04/10 03:48:09;;;;;;;9.23;2.73;;;;;;;2.72;84.97;100752.00;5006901;28;20213;-72
2022/04/10 03:50:36;;;;;;;8.93;3.20;;;;;;;2.73;84.81;100751.09;5004722;28;20233;-71
2022/04/10 03:53:05;;;;;;;9.17;3.03;;;;;;;2.73;85.05;100751.09;5007427;28;20211;-72
2022/04/10 03:55:32;;;;;;;9.90;3.17;;;;;;;2.70;84.84;100753.81;4999596;28;20724;-72
2022/04/10 03:58:00;;;;;;;6.30;3.07;;;;;;;2.68;85.12;100758.28;5007157;28;20206;-72
2022/04/10 04:00:26;;;;;;;8.33;3.47;;;;;;;2.64;85.20;100759.28;5002142;28;20204;-73
2022/04/10 04:02:53;;;;;;;10.50;2.80;;;;;;;2.63;85.14;100754.91;4996878;28;20674;-73
2022/04/10 04:05:20;;;;;;;8.53;3.20;;;;;;;2.62;85.13;100760.22;5004374;28;20230;-72
2022/04/10 04:07:46;;;;;;;8.60;3.63;;;;;;;2.60;84.29;100762.88;5009323;28;20377;-72
2022/04/10 04:10:13;;;;;;;9.87;3.10;;;;;;;2.59;84.46;100765.56;5007678;28;20233;-72
2022/04/10 04:12:40;;;;;;;10.17;3.40;;;;;;;2.58;85.00;100769.09;5000500;28;20207;-71
2022/04/10 04:15:11;;;;;;;6.00;3.60;;;;;;;2.54;84.65;100770.94;5007420;28;20233;-73
2022/04/10 04:17:37;;;;;;;9.57;3.10;;;;;;;2.52;84.77;100770.13;5010412;28;20207;-72
2022/04/10 04:20:05;;;;;;;8.13;3.53;;;;;;;2.51;84.82;100771.03;5010690;28;20203;-72
2022/04/10 04:22:32;;;;;;;14.17;3.40;;;;;;;2.51;84.61;100788.59;5011439;28;20215;-72
2022/04/10 04:24:58;;;;;;;7.37;2.93;;;;;;;2.48;85.47;100793.94;5011848;28;20237;-72
2022/04/10 04:27:24;;;;;;;13.07;3.67;;;;;;;2.49;85.01;100795.66;5011505;28;20211;-72
2022/04/10 04:29:51;;;;;;;7.23;2.83;;;;;;;2.51;84.81;100799.94;5010376;28;20210;-72
2022/04/10 04:32:19;;;;;;;11.63;3.13;;;;;;;2.51;85.13;100799.94;5010514;28;20693;-72
2022/04/10 04:34:47;;;;;;;10.17;3.33;;;;;;;2.52;85.18;100798.19;5011473;28;20235;-72
2022/04/10 04:37:13;;;;;;;10.23;2.90;;;;;;;2.51;84.89;100809.63;5006826;28;20203;-72
2022/04/10 04:39:40;;;;;;;5.27;2.67;;;;;;;2.52;85.20;100809.56;5011402;28;20207;-72
2022/04/10 04:42:08;;;;;;;8.33;2.83;;;;;;;2.54;85.47;100813.00;5003382;28;20210;-73
2022/04/10 04:44:34;;;;;;;7.97;2.90;;;;;;;2.55;85.06;100817.38;5006183;28;20253;-72
2022/04/10 04:47:01;;;;;;;7.33;2.70;;;;;;;2.54;85.25;100822.66;5010781;28;20203;-72
2022/04/10 04:49:29;;;;;;;8.90;3.10;;;;;;;2.54;85.26;100825.28;5010840;28;20222;-71
2022/04/10 04:51:55;;;;;;;11.57;3.70;;;;;;;2.52;85.27;100820.06;5009172;28;20221;-72
2022/04/10 04:54:22;;;;;;;8.57;3.30;;;;;;;2.55;85.77;100830.50;5011047;28;20219;-71
2022/04/10 04:56:49;;;;;;;8.53;3.93;;;;;;;2.57;85.41;100833.97;5010640;28;20349;-72
2022/04/10 04:59:16;;;;;;;5.80;3.10;;;;;;;2.57;85.39;100836.59;5010782;28;20649;-72
2022/04/10 05:01:42;;;;;;;11.97;3.67;;;;;;;2.56;85.87;100845.38;5010154;28;20203;-72
2022/04/10 05:04:09;;;;;;;6.63;3.13;;;;;;;2.55;86.08;100856.78;5010647;28;20583;-72
2022/04/10 05:06:38;;;;;;;11.87;3.50;;;;;;;2.55;85.56;100851.53;5009767;28;20199;-72
2022/04/10 05:09:05;;;;;;;9.37;3.63;;;;;;;2.54;85.16;100855.06;5010689;28;20583;-72
2022/04/10 05:11:31;;;;;;;8.17;3.27;;;;;;;2.54;85.34;100859.47;5003092;28;20214;-72
2022/04/10 05:13:58;;;;;;;9.70;3.80;;;;;;;2.53;85.72;100858.59;5009001;28;20253;-71
2022/04/10 05:16:24;;;;;;;11.53;3.20;;;;;;;2.53;85.12;100865.63;4998995;28;20211;-72
2022/04/10 05:18:51;;;;;;;10.43;3.33;;;;;;;2.52;85.27;100872.66;5007690;28;20211;-71
2022/04/10 05:21:17;;;;;;;8.97;3.30;;;;;;;2.53;85.02;100877.00;5003005;28;20680;-72
2022/04/10 05:23:45;;;;;;;8.60;3.57;;;;;;;2.52;85.58;100870.03;5006969;28;20253;-71
2022/04/10 05:26:12;;;;;;;9.53;3.00;;;;;;;2.52;85.00;100877.03;5010728;28;20688;-71
2022/04/10 05:28:38;;;;;;;10.13;3.20;;;;;;;2.52;85.77;100877.03;5009783;28;20221;-72
2022/04/10 05:31:05;;;;;;;8.20;3.70;;;;;;;2.51;85.68;100875.34;5007986;28;20283;-72
2022/04/10 05:33:33;;;;;;;10.10;3.33;;;;;;;2.54;85.66;100876.09;5004925;28;20233;-73
2022/04/10 05:35:59;;;;;;;9.97;3.57;;;;;;;2.59;85.78;100890.00;5010025;28;20211;-73
2022/04/10 05:38:26;;;;;;;9.30;3.10;;;;;;;2.60;85.28;100889.09;5010190;28;20207;-73
2022/04/10 05:40:54;;;;;;;10.27;3.30;;;;;;;2.65;85.76;100892.47;5006493;28;20215;-73
2022/04/10 05:43:21;;;;;;;10.17;4.27;;;;;;;2.71;85.56;100889.66;5002932;28;20226;-72
2022/04/10 05:45:47;;;;;;;11.90;3.23;;;;;;;2.76;85.43;100898.28;5010128;28;20211;-73
2022/04/10 05:48:14;;;;;;;9.53;2.90;;;;;;;2.80;85.38;100899.09;5010135;28;20261;-72
2022/04/10 05:50:41;;;;;;;7.27;3.17;;;;;;;2.84;85.21;100897.22;5008198;28;20214;-72
2022/04/10 05:53:07;;;;;;;6.30;3.00;;;;;;;2.92;85.27;100908.38;5009924;28;20596;-72
2022/04/10 05:55:34;;;;;;;12.90;3.43;;;;;;;2.99;85.15;100908.19;5010620;28;20199;-72
2022/04/10 05:58:03;;;;;;;8.63;3.20;;;;;;;3.06;84.68;100917.63;5009682;28;20210;-72
2022/04/10 06:00:29;;;;;;;14.83;3.50;;;;;;;3.12;85.42;100919.22;5009854;28;20230;-74
2022/04/10 06:02:56;;;;;;;10.73;3.17;;;;;;;3.18;84.55;100926.94;4993673;28;20609;-72
2022/04/10 06:05:23;;;;;;;9.00;3.37;;;;;;;3.20;84.61;100927.78;5008929;28;20704;-72
2022/04/10 06:07:49;;;;;;;7.47;2.90;;;;;;;3.21;84.88;100929.50;5017001;28;20616;-72
2022/04/10 06:10:16;;;;;;;10.47;3.40;;;;;;;3.22;83.97;100938.25;4996057;28;20662;-74
2022/04/10 06:12:42;;;;;;;11.70;3.67;;;;;;;3.21;84.13;100937.41;4996768;28;20226;-72
2022/04/10 06:15:11;;;;;;;10.73;3.77;;;;;;;3.24;84.15;100929.38;4997953;28;20214;-71
2022/04/10 06:17:37;;;;;;;10.73;3.90;;;;;;;3.32;84.13;100931.81;4993762;28;20223;-72
2022/04/10 06:20:05;;;;;;;11.00;2.93;;;;;;;3.41;83.66;100942.91;4996802;28;20211;-71
2022/04/10 06:22:32;;;;;;;11.27;3.33;;;;;;;3.52;84.27;100936.50;4993901;28;20214;-73
2022/04/10 06:24:58;;;;;;;8.30;3.67;;;;;;;3.64;83.65;100941.38;4992677;28;20227;-72
2022/04/10 06:27:25;;;;;;;13.87;3.53;;;;;;;3.76;83.62;100933.97;5000083;28;20677;-72
2022/04/10 06:29:51;;;;;;;13.70;3.80;;;;;;;3.86;83.99;100939.81;4996359;28;20455;-72
2022/04/10 06:32:19;;;;;;;7.07;2.40;;;;;;;3.94;83.40;100929.88;5001449;28;20215;-72
2022/04/10 06:34:46;;;;;;;9.80;2.70;;;;;;;3.96;82.35;100928.06;5038264;22;20233;-72
2022/04/10 06:37:14;;;;;;;5.03;2.70;;;;;;;3.98;82.05;100942.06;5010443;28;20210;-72
2022/04/10 06:39:43;;;;;;;9.30;2.70;;;;;;;3.98;81.64;100939.44;5013639;28;20298;-72
2022/04/10 06:42:10;;;;;;;10.93;3.80;;;;;;;4.01;81.91;100946.38;5012168;28;20277;-73
2022/04/10 06:44:38;;;;;;;9.27;3.30;;;;;;;4.04;81.40;100947.16;5012466;28;20227;-72
2022/04/10 06:47:04;;;;;;;9.13;2.77;;;;;;;4.04;80.96;100952.41;4990203;28;20677;-72
2022/04/10 06:49:32;;;;;;;14.27;3.10;;;;;;;4.06;81.18;100950.59;4991915;28;20689;-73
2022/04/10 06:52:00;;;;;;;10.80;3.63;;;;;;;4.10;80.77;100954.88;4994229;28;20207;-72
2022/04/10 06:54:26;;;;;;;10.00;3.50;;;;;;;4.16;80.99;100956.44;4996344;28;20223;-73
2022/04/10 06:56:53;;;;;;;9.97;3.37;;;;;;;4.21;80.76;100949.25;4996259;28;20214;-72
2022/04/10 06:59:19;;;;;;;9.70;3.23;;;;;;;4.30;80.30;100948.09;4995285;28;20215;-72
2022/04/10 07:01:46;;;;;;;7.13;3.17;;;;;;;4.39;80.73;100953.91;4993581;28;20200;-72
2022/04/10 07:04:13;;;;;;;15.87;3.43;;;;;;;4.50;80.16;100943.84;4996804;28;20242;-73
2022/04/10 07:06:46;;;;;;;10.27;3.30;;;;;;;4.63;80.03;100952.25;4994557;28;20410;-72
2022/04/10 07:09:13;;;;;;;5.23;2.50;;;;;;;4.76;80.21;100956.19;4993115;28;20306;-72
2022/04/10 07:11:39;;;;;;;6.97;2.57;;;;;;;4.84;79.67;100950.63;4992101;28;20618;-73
2022/04/10 07:14:06;;;;;;;10.67;3.37;;;;;;;4.92;78.69;100947.72;4994698;28;20223;-73
2022/04/10 07:16:33;;;;;;;5.73;2.57;;;;;;;5.02;78.68;100963.16;4991115;28;20215;-73
2022/04/10 07:18:59;;;;;;;7.93;2.37;;;;;;;5.12;78.37;100958.44;4995760;28;20202;-73
2022/04/10 07:24:09;;;;;;;9.93;3.37;;;;;;;5.20;77.18;100959.00;5001139;28;20753;-73
2022/04/10 07:26:35;;;;;;;7.30;3.37;;;;;;;5.20;76.63;100959.00;5000918;28;20716;-73
2022/04/10 07:29:03;;;;;;;7.87;2.80;;;;;;;5.22;76.12;100965.09;4990783;28;20616;-73
2022/04/10 07:31:29;;;;;;;8.73;2.50;;;;;;;5.23;76.02;100970.31;4990501;28;20216;-72
2022/04/10 07:33:56;;;;;;;10.77;3.73;;;;;;;5.28;76.05;100969.28;4996801;28;20242;-73
2022/04/10 07:36:22;;;;;;;8.40;2.60;;;;;;;5.30;75.84;100968.31;4996750;28;20206;-73
2022/04/10 07:38:49;;;;;;;9.83;2.60;;;;;;;5.37;75.87;100972.47;4998958;28;20215;-72
2022/04/10 07:41:17;;;;;;;8.27;2.47;;;;;;;5.42;75.47;100973.16;4990720;28;20200;-73
2022/04/10 07:43:43;;;;;;;5.93;2.73;;;;;;;5.49;75.57;100976.44;4991145;28;20207;-73
2022/04/10 07:48:54;;;;;;;8.10;1.90;;;;;;;5.58;74.51;100981.34;4995202;28;20210;-73
2022/04/10 07:51:20;;;;;;;4.67;1.50;;;;;;;5.65;74.18;100976.72;4999395;28;20211;-74
2022/04/10 07:53:47;;;;;;;7.27;2.33;;;;;;;5.65;73.92;100982.88;4994000;28;20199;-74
2022/04/10 07:56:14;;;;;;;8.20;2.50;;;;;;;5.71;73.54;100984.44;5000487;28;20211;-73
2022/04/10 07:58:41;;;;;;;8.23;2.47;;;;;;;5.76;73.39;100979.81;5001566;28;20207;-74
2022/04/10 08:01:08;;;;;;;7.80;2.40;;;;;;;5.78;73.31;100983.25;4992844;28;20209;-73
2022/04/10 08:03:35;;;;;;;9.23;2.47;;;;;;;5.80;72.73;100981.41;4990596;28;20204;-74
2022/04/10 08:06:01;;;;;;;8.97;3.40;;;;;;;5.82;72.42;100982.22;5001805;28;20484;-72
2022/04/10 08:08:28;;;;;;;9.27;2.50;;;;;;;5.83;72.21;100991.88;4997379;28;20305;-73
2022/04/10 08:10:55;;;;;;;4.67;2.07;;;;;;;5.81;71.94;100988.44;5000903;28;20209;-72
2022/04/10 08:13:21;;;;;;;6.27;2.27;;;;;;;5.80;71.71;100998.13;4992590;28;20230;-75
2022/04/10 08:15:49;;;;;;;5.53;2.13;;;;;;;5.82;71.38;101003.38;4993355;28;20231;-72
2022/04/10 08:18:16;;;;;;;7.90;2.03;;;;;;;5.90;71.71;100996.06;4994558;28;20211;-72
2022/04/10 08:20:43;;;;;;;8.53;2.00;;;;;;;6.01;71.61;101008.84;4997834;28;20217;-73
2022/04/10 08:23:09;;;;;;;3.43;1.67;;;;;;;6.12;71.31;101007.50;5002771;28;20208;-72
2022/04/10 08:25:36;;;;;;;9.27;2.30;;;;;;;6.20;70.94;101005.41;4997464;28;20794;-73
2022/04/10 08:28:02;;;;;;;6.07;1.90;;;;;;;6.25;70.13;101015.81;4996398;28;20691;-72
2022/04/10 08:30:29;;;;;;;6.97;2.07;;;;;;;6.29;70.44;101014.75;4997000;28;20689;-69
2022/04/10 08:32:58;;;;;;;7.70;2.40;;;;;;;6.36;69.94;101012.75;4992997;28;20697;-72
2022/04/10 08:35:25;;;;;;;8.43;2.33;;;;;;;6.39;69.55;101010.84;5002059;28;20280;-72
2022/04/10 08:37:51;;;;;;;5.37;1.97;;;;;;;6.40;69.76;101017.00;4994503;28;20681;-72
2022/04/10 08:40:18;;;;;;;9.47;2.20;;;;;;;6.39;69.14;101017.91;4999072;28;20649;-71
2022/04/10 08:42:45;;;;;;;5.00;2.00;;;;;;;6.37;68.97;101025.91;4992396;28;20210;-69
2022/04/10 08:45:11;;;;;;;7.23;2.30;;;;;;;6.40;69.43;101023.16;4995506;28;20288;-74
2022/04/10 08:47:39;;;;;;;4.77;1.83;;;;;;;6.36;68.77;101021.53;4997415;28;20210;-73
2022/04/10 08:50:09;;;;;;;8.70;2.27;;;;;;;6.37;69.25;101028.56;5002009;28;20214;-74
2022/04/10 08:52:36;;;;;;;4.30;1.63;;;;;;;6.35;68.64;101024.25;4997981;28;20204;-73
2022/04/10 08:55:04;;;;;;;6.13;2.03;;;;;;;6.36;69.04;101039.19;4997305;28;20229;-74
2022/04/10 08:57:31;;;;;;;7.13;1.80;;;;;;;6.39;68.94;101031.13;5002784;28;20207;-72
2022/04/10 08:59:59;;;;;;;6.30;1.93;;;;;;;6.40;68.80;101028.44;4995388;28;20235;-74
2022/04/10 09:02:26;;;;;;;6.00;1.60;;;;;;;6.41;68.72;101032.81;5004431;28;20213;-73
2022/04/10 09:04:53;;;;;;;9.87;2.13;;;;;;;6.41;68.28;101043.38;4999370;28;20238;-72
2022/04/10 09:07:21;;;;;;;6.30;1.70;;;;;;;6.39;68.46;101033.78;5001995;28;20310;-73
2022/04/10 09:09:56;;;;;;;10.63;1.60;;;;;;;6.35;68.35;101037.47;5002562;28;20261;-72
2022/04/10 09:12:23;;;;;;;4.67;1.30;;;;;;;6.34;68.05;101036.59;5007064;28;20212;-73
2022/04/10 09:14:50;;;;;;;7.30;2.00;;;;;;;6.40;68.46;101041.66;5008213;28;20219;-73
2022/04/10 09:17:18;;;;;;;9.87;3.00;;;;;;;6.53;68.39;101042.88;5000816;28;20719;-73
2022/04/10 09:19:47;;;;;;;6.27;2.00;;;;;;;6.72;67.69;101043.00;4996611;28;20200;-72
2022/04/10 09:22:28;;;;;;;3.57;1.37;;;;;;;6.88;67.35;101043.22;4999954;28;20221;-74
2022/04/10 09:25:11;;;;;;;5.03;1.03;;;;;;;7.04;66.25;101038.13;5002970;28;20229;-73
2022/04/10 09:27:40;;;;;;;4.30;1.30;;;;;;;7.12;66.27;101038.69;5009378;28;20248;-73
2022/04/10 09:30:09;;;;;;;4.30;1.33;;;;;;;7.17;65.07;101034.88;5020132;28;20210;-72
2022/04/10 09:32:43;;;;;;;3.10;1.30;;;;;;;7.19;64.38;101043.63;5002626;28;20211;-73
2022/04/10 09:35:11;;;;;;;4.90;1.40;;;;;;;7.18;63.28;101044.56;5016989;28;20599;-73
2022/04/10 09:37:50;;;;;;;4.67;1.30;;;;;;;7.18;62.64;101038.41;5006660;28;20217;-70
2022/04/10 09:40:27;;;;;;;2.20;1.10;;;;;;;7.18;62.74;101033.97;4996944;28;20477;-72
2022/04/10 09:43:01;;;;;;;2.27;0.90;;;;;;;7.17;63.25;101037.53;5015624;28;20678;-71
2022/04/10 09:45:29;;;;;;;4.00;1.10;;;;;;;7.18;62.61;101036.63;5009607;28;20228;-70
2022/04/10 09:47:57;;;;;;;3.90;0.97;;;;;;;7.25;62.82;101034.56;4999916;28;20207;-71
2022/04/10 09:50:31;;;;;;;1.80;0.70;;;;;;;7.34;62.35;101041.28;4999007;28;20232;-72
2022/04/10 09:53:06;;;;;;;2.77;0.70;;;;;;;7.41;60.95;101032.09;5001656;28;20203;-73
2022/04/10 09:55:34;;;;;;;3.67;1.00;;;;;;;7.50;60.77;101039.66;4999160;28;20238;-73
2022/04/10 09:58:02;;;;;;;3.03;0.97;;;;;;;7.55;60.80;101033.22;5001389;28;20220;-74
2022/04/10 10:00:30;;;;;;;5.73;1.30;;;;;;;7.59;60.18;101037.44;5000072;28;20207;-73
2022/04/10 10:02:56;;;;;;;2.57;1.00;;;;;;;7.61;60.02;101054.16;5001231;28;20557;-74
2022/04/10 10:05:24;;;;;;;2.60;0.80;;;;;;;7.60;59.42;101040.97;4994994;28;20236;-73
2022/04/10 10:07:50;;;;;;;2.50;1.17;;;;;;;7.53;58.61;101035.06;4995856;28;20207;-73
2022/04/10 10:10:20;;;;;;;3.03;1.10;;;;;;;7.50;58.76;101032.56;4998201;28;20213;-73
2022/04/10 10:12:49;;;;;;;4.23;1.20;;;;;;;7.49;59.09;101033.50;5001321;28;20672;-73
2022/04/10 10:15:16;;;;;;;3.70;1.10;;;;;;;7.48;59.40;101029.13;4996353;28;20222;-73
2022/04/10 10:17:44;;;;;;;3.27;0.90;;;;;;;7.57;60.00;101036.66;4995233;28;20206;-73
2022/04/10 10:20:11;;;;;;;4.20;1.43;;;;;;;7.59;59.35;101037.44;5000307;28;20209;-73
2022/04/10 10:22:38;;;;;;;2.60;0.83;;;;;;;7.59;59.38;101036.59;5001458;28;20208;-72
2022/04/10 10:25:10;;;;;;;5.23;1.20;;;;;;;7.55;58.63;101027.91;5003945;28;20230;-73
2022/04/10 10:28:02;;;;;;;4.43;1.30;;;;;;;7.51;58.93;101036.94;5005162;28;20203;-73
2022/04/10 10:30:38;;;;;;;3.43;1.63;;;;;;;7.51;58.62;101044.91;4997259;28;20209;-73
2022/04/10 10:33:16;;;;;;;2.60;1.33;;;;;;;7.57;59.39;101044.59;4998162;28;20203;-73
2022/04/10 10:35:45;;;;;;;4.63;1.00;;;;;;;7.68;59.91;101025.59;4998934;28;20239;-73
2022/04/10 10:38:22;;;;;;;4.60;1.43;;;;;;;7.79;58.58;101033.03;5002279;28;20787;-73
2022/04/10 10:40:50;;;;;;;4.90;1.57;;;;;;;7.87;58.22;101033.56;4995104;28;20206;-73
2022/04/10 10:43:25;;;;;;;5.03;0.90;;;;;;;7.89;56.38;101026.38;4996195;28;20219;-74
2022/04/10 10:45:53;;;;;;;3.30;0.90;;;;;;;7.98;57.07;101028.63;4997655;28;20226;-74
2022/04/10 10:48:37;;;;;;;3.20;1.20;;;;;;;8.09;57.08;101028.09;4996990;28;20204;-74
2022/04/10 10:51:41;;;;;;;3.03;1.03;;;;;;;8.12;55.98;101023.50;5001513;28;20221;-74
2022/04/10 10:54:11;;;;;;;3.27;1.00;;;;;;;8.15;56.19;101018.06;5001227;28;20410;-73
2022/04/10 10:56:41;;;;;;;2.53;0.90;;;;;;;8.22;56.24;101016.84;4992994;28;20343;-73
2022/04/10 10:59:39;;;;;;;4.57;0.83;;;;;;;8.35;56.09;101028.63;4993527;28;20415;-74
2022/04/10 11:02:09;;;;;;;2.03;0.70;;;;;;;8.41;56.35;101029.28;4961545;28;20211;-73
2022/04/10 11:04:40;;;;;;;2.60;0.93;;;;;;;8.42;55.25;101041.63;4993899;28;20640;-73
2022/04/10 11:07:12;;;;;;;1.73;0.87;;;;;;;8.38;54.78;101037.38;4999498;28;20202;-73
2022/04/10 11:09:48;;;;;;;2.87;1.73;;;;;;;8.33;54.74;101043.75;5009141;28;20206;-74
2022/04/10 11:12:15;;;;;;;3.43;0.90;;;;;;;8.31;54.51;101040.28;5003211;28;20203;-74
2022/04/10 11:14:45;;;;;;;3.57;1.00;;;;;;;8.29;54.77;101034.19;4996189;28;20233;-73
2022/04/10 11:17:17;;;;;;;3.93;1.20;;;;;;;8.28;55.18;101035.13;5000343;28;20203;-73
2022/04/10 11:19:46;;;;;;;3.63;1.40;;;;;;;8.26;54.57;101044.94;4995650;28;20204;-73
2022/04/10 11:22:20;;;;;;;4.87;1.30;;;;;;;8.28;54.39;101039.56;4999974;28;20715;-73
2022/04/10 11:24:50;;;;;;;3.77;1.50;;;;;;;8.30;54.74;101046.53;5000416;28;20218;-73
2022/04/10 11:27:41;;;;;;;6.33;2.37;;;;;;;8.32;55.37;101042.03;5004821;28;20590;-73
2022/04/10 11:30:11;;;;;;;6.70;3.03;;;;;;;8.30;55.33;101046.53;5004113;28;20210;-73
2022/04/10 11:32:46;;;;;;;1.87;1.20;;;;;;;8.28;55.63;101044.88;5005858;28;20245;-72
2022/04/10 11:35:18;;;;;;;2.70;1.63;;;;;;;8.26;55.71;101049.38;4994547;28;20231;-73
2022/04/10 11:37:47;;;;;;;5.90;4.03;;;;;;;8.22;56.35;101048.69;4996656;28;20211;-72
2022/04/10 11:40:15;;;;;;;6.37;5.77;;;;;;;8.15;56.77;101057.88;5000120;28;20308;-72
2022/04/10 11:42:44;;;;;;;5.97;4.03;;;;;;;8.08;56.47;101056.41;4998874;28;20604;-73
2022/04/10 11:45:12;;;;;;;6.80;4.47;;;;;;;8.04;57.90;101070.78;4997110;28;20312;-72